Time;durP1;ratioP1;P1;durP2;ratioP2;P2;SDS_P1;SDS_P2;PMS_P1;PMS_P2;Temp;Humidity;BMP_temperature;BMP_pressure;BME280_temperature;BME280_humidity;BME280_pressure;Samples;Min_cycle;Max_cycle;Signal;HPM_P1;HPM_P2
2022/12/05 00:01:35;;;;;;;17.60;12.30;;;;;;;2.87;100.00;97914.03;5095296;28;20220;-71
2022/12/05 00:04:05;;;;;;;17.63;12.13;;;;;;;2.89;100.00;97906.81;5094837;28;20218;-72
2022/12/05 00:06:33;;;;;;;19.10;12.90;;;;;;;2.81;100.00;97920.00;5094943;28;20222;-71
2022/12/05 00:09:00;;;;;;;20.23;12.50;;;;;;;2.88;100.00;97907.78;5095194;28;20282;-72
2022/12/05 00:11:29;;;;;;;19.23;13.17;;;;;;;2.83;100.00;97910.97;5094809;28;20234;-71
2022/12/05 00:13:57;;;;;;;20.63;12.63;;;;;;;2.82;100.00;97911.94;5094838;28;20286;-71
2022/12/05 00:16:26;;;;;;;18.97;12.23;;;;;;;2.91;100.00;97904.81;5094778;28;20295;-72
2022/12/05 00:18:53;;;;;;;19.00;12.83;;;;;;;2.84;100.00;97909.16;5094717;28;20686;-71
2022/12/05 00:21:22;;;;;;;17.20;12.13;;;;;;;2.85;100.00;97916.03;5094923;28;20226;-72
2022/12/05 00:23:49;;;;;;;17.77;13.03;;;;;;;2.87;100.00;97911.41;5094970;28;20566;-71
2022/12/05 00:26:16;;;;;;;19.13;13.13;;;;;;;2.91;100.00;97915.31;5094825;28;20223;-72
2022/12/05 00:28:43;;;;;;;19.10;13.30;;;;;;;2.94;100.00;97915.00;5094855;28;20230;-72
2022/12/05 00:31:12;;;;;;;20.53;13.43;;;;;;;2.92;100.00;97901.19;5076854;28;20251;-71
2022/12/05 00:33:39;;;;;;;17.30;12.87;;;;;;;2.94;100.00;97913.16;5094442;28;20670;-71
2022/12/05 00:36:09;;;;;;;20.73;13.60;;;;;;;2.90;100.00;97904.03;5094383;28;20200;-71
2022/12/05 00:38:36;;;;;;;19.77;12.70;;;;;;;2.88;100.00;97910.41;5094635;28;20206;-72
2022/12/05 00:41:10;;;;;;;20.13;13.23;;;;;;;2.94;100.00;97915.00;5094533;28;20238;-72
2022/12/05 00:43:37;;;;;;;17.90;12.60;;;;;;;2.79;100.00;97906.22;5094526;28;20187;-72
2022/12/05 00:46:05;;;;;;;20.17;13.23;;;;;;;2.87;100.00;97906.16;5094434;28;20223;-72
2022/12/05 00:48:32;;;;;;;19.73;13.10;;;;;;;2.82;100.00;97911.94;5094189;28;20208;-72
2022/12/05 00:51:07;;;;;;;22.07;12.90;;;;;;;2.83;100.00;97918.00;5094290;28;20236;-71
2022/12/05 00:53:33;;;;;;;17.80;12.00;;;;;;;2.85;100.00;97916.03;5094382;28;20188;-72
2022/12/05 00:56:13;;;;;;;21.57;12.83;;;;;;;2.85;100.00;97916.03;5093999;28;20655;-71
2022/12/05 00:58:40;;;;;;;19.83;13.00;;;;;;;2.90;100.00;97914.53;5094378;28;20192;-72
2022/12/05 01:01:12;;;;;;;19.70;12.10;;;;;;;2.82;100.00;97919.81;5093871;28;20593;-72
2022/12/05 01:03:40;;;;;;;18.23;12.40;;;;;;;2.87;100.00;97930.63;5093923;28;20211;-72
2022/12/05 01:06:06;;;;;;;19.93;12.93;;;;;;;2.88;100.00;97941.91;5093806;28;20227;-71
2022/12/05 01:08:35;;;;;;;18.90;12.53;;;;;;;2.92;100.00;97940.59;5094912;28;20204;-72
2022/12/05 01:11:02;;;;;;;16.77;11.83;;;;;;;2.90;100.00;97937.31;5093730;28;20732;-72
2022/12/05 01:13:29;;;;;;;19.33;12.53;;;;;;;2.85;100.00;97942.28;5094895;28;20298;-72
2022/12/05 01:15:55;;;;;;;20.53;13.20;;;;;;;2.87;100.00;97948.16;5093689;28;20235;-71
2022/12/05 01:18:23;;;;;;;20.17;13.00;;;;;;;2.90;100.00;97956.53;5093216;28;20204;-72
2022/12/05 01:20:50;;;;;;;18.90;11.97;;;;;;;2.86;100.00;97965.75;5093860;28;20231;-71
2022/12/05 01:23:16;;;;;;;18.23;12.33;;;;;;;2.87;100.00;97961.28;5093830;28;20200;-72
2022/12/05 01:25:45;;;;;;;20.17;13.07;;;;;;;2.93;100.00;97965.88;5093591;28;20275;-71
2022/12/05 01:28:12;;;;;;;20.50;13.13;;;;;;;2.96;100.00;97960.25;5093786;28;20238;-72
2022/12/05 01:30:40;;;;;;;18.20;12.27;;;;;;;2.84;100.00;97956.41;5093714;28;20223;-72
2022/12/05 01:33:07;;;;;;;19.43;12.13;;;;;;;2.90;100.00;97958.34;5093697;28;20211;-72
2022/12/05 01:35:35;;;;;;;15.80;10.73;;;;;;;2.89;100.00;97959.34;5093711;28;20204;-71
2022/12/05 01:38:01;;;;;;;17.67;12.00;;;;;;;3.01;100.00;97968.44;5093702;28;20207;-72
2022/12/05 01:40:28;;;;;;;16.37;11.77;;;;;;;3.02;100.00;97963.00;5093623;28;20218;-71
2022/12/05 01:42:54;;;;;;;17.13;11.53;;;;;;;3.08;100.00;97967.56;5093648;28;20203;-71
2022/12/05 01:45:43;;;;;;;18.77;11.87;;;;;;;2.91;100.00;97957.34;5093607;28;20618;-71
2022/12/05 01:48:23;;;;;;;17.17;11.27;;;;;;;2.93;100.00;97961.41;5093625;28;20184;-72
2022/12/05 01:50:50;;;;;;;16.33;11.93;;;;;;;2.94;100.00;97968.31;5093161;28;20710;-72
2022/12/05 01:53:18;;;;;;;18.10;11.73;;;;;;;2.85;100.00;97961.47;5093564;28;20207;-72
2022/12/05 01:55:47;;;;;;;18.40;11.87;;;;;;;2.87;100.00;97967.38;5093564;28;20196;-71
2022/12/05 01:58:15;;;;;;;18.37;12.53;;;;;;;2.88;100.00;97968.19;5093529;28;20200;-71
2022/12/05 02:00:41;;;;;;;16.47;11.17;;;;;;;2.85;100.00;97963.28;5093472;28;20223;-71
2022/12/05 02:03:12;;;;;;;16.83;11.27;;;;;;;2.96;100.00;97966.34;5093494;28;20200;-72
2022/12/05 02:05:39;;;;;;;15.57;11.00;;;;;;;2.89;100.00;97968.00;5093391;28;20218;-72
2022/12/05 02:08:08;;;;;;;14.50;10.60;;;;;;;2.91;100.00;97967.84;5093420;28;20204;-72
2022/12/05 02:10:39;;;;;;;16.50;10.60;;;;;;;2.90;100.00;97961.78;5093346;28;20231;-72
2022/12/05 02:13:21;;;;;;;14.20;10.50;;;;;;;2.85;100.00;97969.34;5093168;28;20188;-72
2022/12/05 02:15:59;;;;;;;17.50;10.60;;;;;;;2.88;100.00;97974.25;5093417;28;20201;-71
2022/12/05 02:18:57;;;;;;;13.83;10.20;;;;;;;2.96;100.00;97983.88;5093432;28;20241;-71
2022/12/05 02:22:11;;;;;;;14.63;9.90;;;;;;;2.84;100.00;97982.66;5093291;28;20224;-72
2022/12/05 02:25:05;;;;;;;15.93;10.33;;;;;;;2.79;100.00;97982.34;5087576;28;20667;-71
2022/12/05 02:27:40;;;;;;;13.27;9.37;;;;;;;2.80;100.00;97992.66;5093277;28;20216;-72
2022/12/05 02:30:13;;;;;;;13.67;9.80;;;;;;;2.78;100.00;97992.03;5094992;28;20198;-72
2022/12/05 02:33:13;;;;;;;13.40;10.30;;;;;;;2.77;100.00;98007.94;5096999;28;20220;-72
2022/12/05 02:36:03;;;;;;;15.50;10.37;;;;;;;2.83;100.00;98008.09;5097004;28;20206;-72
2022/12/05 02:38:38;;;;;;;15.47;10.47;;;;;;;2.80;100.00;98021.53;5097079;28;20645;-71
2022/12/05 02:41:19;;;;;;;15.40;9.83;;;;;;;2.89;100.00;98023.13;5096904;28;20224;-71
2022/12/05 02:44:14;;;;;;;14.43;10.17;;;;;;;2.80;100.00;98023.38;5096911;28;20271;-72
2022/12/05 02:46:43;;;;;;;16.67;10.33;;;;;;;2.83;100.00;98015.97;5096776;28;20212;-72
2022/12/05 02:49:13;;;;;;;16.73;11.33;;;;;;;2.87;100.00;98014.63;5096792;28;20286;-71
2022/12/05 02:51:46;;;;;;;14.37;9.87;;;;;;;2.91;100.00;98021.19;5096260;28;20234;-72
2022/12/05 02:54:17;;;;;;;14.33;10.03;;;;;;;2.84;100.00;98019.41;5096646;28;20203;-72
2022/12/05 02:56:46;;;;;;;16.47;10.60;;;;;;;2.92;100.00;98032.47;5096619;28;20184;-72
2022/12/05 02:59:12;;;;;;;18.23;11.17;;;;;;;2.94;100.00;98035.78;5096552;28;20214;-72
2022/12/05 03:01:39;;;;;;;16.27;10.77;;;;;;;2.96;100.00;98042.47;5095986;28;20230;-71
2022/12/05 03:04:08;;;;;;;16.73;11.53;;;;;;;2.97;100.00;98036.22;5096465;28;20257;-71
2022/12/05 03:06:39;;;;;;;18.47;11.70;;;;;;;2.92;100.00;98028.06;5078096;28;20216;-71
2022/12/05 03:09:27;;;;;;;18.37;11.67;;;;;;;2.96;100.00;98021.47;5096930;28;20195;-71
2022/12/05 03:12:13;;;;;;;19.80;12.37;;;;;;;2.91;100.00;98020.34;5095971;28;20242;-71
2022/12/05 03:14:46;;;;;;;15.57;10.73;;;;;;;2.94;100.00;98012.13;5096655;28;20220;-71
2022/12/05 03:17:20;;;;;;;18.97;11.80;;;;;;;2.97;100.00;98014.41;5078652;28;20192;-72
2022/12/05 03:19:59;;;;;;;16.77;10.77;;;;;;;2.94;100.00;98004.25;5096060;28;20192;-71
2022/12/05 03:22:58;;;;;;;18.90;12.30;;;;;;;2.84;100.00;97996.59;5096001;28;20227;-71
2022/12/05 03:25:34;;;;;;;17.73;11.23;;;;;;;2.81;100.00;98007.44;5085037;28;20309;-71
2022/12/05 03:28:17;;;;;;;17.37;10.73;;;;;;;2.84;100.00;98004.47;5077522;28;20199;-72
2022/12/05 03:30:47;;;;;;;18.93;11.20;;;;;;;2.81;100.00;98004.81;5095378;28;20227;-71
2022/12/05 03:33:20;;;;;;;17.13;11.40;;;;;;;2.76;100.00;98007.13;5077803;28;20207;-72
2022/12/05 03:36:06;;;;;;;17.90;11.20;;;;;;;2.74;100.00;98005.66;5095799;28;20192;-72
2022/12/05 03:38:44;;;;;;;15.67;10.63;;;;;;;2.82;100.00;98016.13;5095691;28;20199;-72
2022/12/05 03:41:32;;;;;;;17.90;11.00;;;;;;;2.87;100.00;98011.19;5095034;28;20224;-71
2022/12/05 03:44:17;;;;;;;17.47;10.97;;;;;;;2.92;100.00;98019.34;5095807;28;20188;-71
2022/12/05 03:46:47;;;;;;;17.93;11.87;;;;;;;2.88;100.00;98004.94;5095492;28;20208;-71
2022/12/05 03:49:23;;;;;;;19.10;11.33;;;;;;;3.00;100.00;98011.44;5096247;28;20188;-72
2022/12/05 03:51:58;;;;;;;18.47;11.27;;;;;;;3.03;100.00;98024.25;5095375;28;20235;-72
2022/12/05 03:54:29;;;;;;;19.27;12.13;;;;;;;3.03;100.00;98029.50;5095622;28;20192;-72
2022/12/05 03:57:20;;;;;;;16.80;11.47;;;;;;;3.06;100.00;98021.25;5095529;28;20195;-71
2022/12/05 03:59:54;;;;;;;18.27;11.73;;;;;;;3.10;100.00;98015.50;5077097;28;20194;-71
2022/12/05 04:02:27;;;;;;;18.83;12.00;;;;;;;3.15;100.00;98007.91;5076900;28;20227;-72
2022/12/05 04:05:04;;;;;;;19.43;12.40;;;;;;;3.14;100.00;98016.78;5095206;28;20597;-71
2022/12/05 04:07:36;;;;;;;19.80;12.53;;;;;;;3.13;100.00;98015.16;5094707;28;20210;-71
2022/12/05 04:10:08;;;;;;;19.23;12.03;;;;;;;3.19;100.00;98013.63;5077265;28;20245;-71
2022/12/05 04:12:36;;;;;;;19.47;11.27;;;;;;;3.24;100.00;98000.78;5095060;28;20224;-71
2022/12/05 04:15:08;;;;;;;19.23;11.53;;;;;;;3.17;100.00;98003.28;5095023;28;20204;-72
2022/12/05 04:17:54;;;;;;;18.83;11.83;;;;;;;3.18;100.00;98010.19;5094773;28;20547;-71
2022/12/05 04:23:09;;;;;;;19.07;11.87;;;;;;;3.06;100.00;98003.69;5079821;28;20221;-71
2022/12/05 04:26:15;;;;;;;18.67;12.30;;;;;;;3.08;100.00;98011.41;5060131;28;20677;-72
2022/12/05 04:28:51;;;;;;;18.80;12.20;;;;;;;3.05;100.00;98027.50;5049597;28;20212;-72
2022/12/05 04:31:24;;;;;;;17.53;10.80;;;;;;;3.13;100.00;98030.09;5094679;28;20228;-72
2022/12/05 04:33:55;;;;;;;16.20;11.00;;;;;;;3.09;100.00;98032.25;5094613;28;20192;-71
2022/12/05 04:36:30;;;;;;;19.67;12.70;;;;;;;3.08;100.00;98037.66;5094281;28;20542;-72
2022/12/05 04:39:34;;;;;;;18.97;11.60;;;;;;;3.03;100.00;98040.78;5094546;28;20191;-72
2022/12/05 04:42:16;;;;;;;18.43;11.57;;;;;;;3.13;100.00;98041.41;5094031;28;20228;-72
2022/12/05 04:44:59;;;;;;;21.70;11.70;;;;;;;3.15;100.00;98044.69;5094444;28;20206;-72
2022/12/05 04:47:30;;;;;;;17.90;11.20;;;;;;;3.20;100.00;98041.53;5094199;28;20295;-72
2022/12/05 04:49:59;;;;;;;20.87;11.90;;;;;;;3.19;100.00;98035.47;5093947;28;20654;-72
2022/12/05 04:52:27;;;;;;;21.23;11.97;;;;;;;3.19;100.00;98045.13;5093296;28;20231;-71
2022/12/05 04:55:01;;;;;;;18.23;11.43;;;;;;;3.29;100.00;98051.00;5093429;28;20549;-72
2022/12/05 04:57:33;;;;;;;18.27;11.60;;;;;;;3.27;100.00;98045.09;5076205;28;20187;-71
2022/12/05 04:59:59;;;;;;;16.67;11.67;;;;;;;3.24;100.00;98042.81;5094225;28;20199;-71
2022/12/05 05:02:44;;;;;;;19.07;11.53;;;;;;;3.31;100.00;98043.75;5093924;28;20231;-72
2022/12/05 05:05:15;;;;;;;17.07;11.03;;;;;;;3.30;100.00;98050.03;5094546;28;20195;-72
2022/12/05 05:07:47;;;;;;;21.83;11.77;;;;;;;3.30;100.00;98047.38;5094422;28;20620;-72
2022/12/05 05:10:18;;;;;;;19.40;11.90;;;;;;;3.22;100.00;98048.25;5093747;28;20635;-72
2022/12/05 05:12:45;;;;;;;19.13;11.80;;;;;;;3.29;100.00;98048.38;5093978;28;20206;-72
2022/12/05 05:15:11;;;;;;;18.17;12.03;;;;;;;3.29;100.00;98051.81;5093942;28;20210;-72
2022/12/05 05:17:38;;;;;;;21.53;13.17;;;;;;;3.28;100.00;98058.06;5093244;28;20230;-71
2022/12/05 05:22:48;;;;;;;17.63;11.63;;;;;;;3.27;100.00;98059.06;5092340;28;20280;-72
2022/12/05 05:25:14;;;;;;;17.70;11.20;;;;;;;3.34;100.00;98051.31;5093330;28;20249;-72
2022/12/05 05:27:41;;;;;;;19.07;11.47;;;;;;;3.37;100.00;98059.66;5093330;28;20560;-72
2022/12/05 05:30:08;;;;;;;17.07;11.83;;;;;;;3.30;100.00;98065.78;5093991;28;20552;-72
2022/12/05 05:32:34;;;;;;;16.60;11.60;;;;;;;3.29;100.00;98072.03;5093139;28;20728;-72
2022/12/05 05:35:01;;;;;;;17.23;11.27;;;;;;;3.35;100.00;98076.59;5093656;28;20563;-72
2022/12/05 05:37:27;;;;;;;17.43;12.00;;;;;;;3.35;100.00;98089.72;5093570;28;20206;-71
2022/12/05 05:39:54;;;;;;;18.80;11.20;;;;;;;3.40;100.00;98092.66;5093592;28;20204;-71
2022/12/05 05:42:20;;;;;;;17.83;11.93;;;;;;;3.41;100.00;98087.22;5093284;28;20231;-71
2022/12/05 05:44:46;;;;;;;19.03;12.07;;;;;;;3.40;100.00;98090.03;5093197;28;20696;-72
2022/12/05 05:47:13;;;;;;;16.33;10.60;;;;;;;3.46;100.00;98089.31;5093055;28;20239;-72
2022/12/05 05:49:39;;;;;;;16.97;11.13;;;;;;;3.40;100.00;98105.78;5092882;28;20204;-72
2022/12/05 05:52:05;;;;;;;17.17;11.20;;;;;;;3.42;100.00;98109.03;5092593;28;20228;-71
2022/12/05 05:54:32;;;;;;;16.87;11.23;;;;;;;3.41;100.00;98102.16;5093040;28;20204;-71
2022/12/05 05:56:58;;;;;;;16.93;11.63;;;;;;;3.39;100.00;98102.31;5092883;28;20200;-72
2022/12/05 05:59:24;;;;;;;16.60;11.30;;;;;;;3.43;100.00;98097.56;5093067;28;20200;-71
2022/12/05 06:01:51;;;;;;;15.87;10.30;;;;;;;3.49;100.00;98095.06;5092662;28;20227;-72
2022/12/05 06:04:17;;;;;;;17.70;12.20;;;;;;;3.42;100.00;98093.28;5093589;28;20206;-71
2022/12/05 06:06:43;;;;;;;18.20;11.73;;;;;;;3.43;100.00;98087.84;5097096;28;20246;-72
2022/12/05 06:09:10;;;;;;;16.57;11.67;;;;;;;3.41;100.00;98081.13;5097127;28;20208;-72
2022/12/05 06:11:36;;;;;;;19.40;12.47;;;;;;;3.51;100.00;98081.72;5097196;28;20250;-72
2022/12/05 06:14:02;;;;;;;16.80;10.80;;;;;;;3.43;100.00;98094.94;5096480;28;20207;-72
2022/12/05 06:16:31;;;;;;;17.47;12.27;;;;;;;3.40;100.00;98098.72;5096228;28;20561;-72
2022/12/05 06:18:58;;;;;;;18.20;11.43;;;;;;;3.43;100.00;98098.38;5096221;28;20685;-72
2022/12/05 06:21:24;;;;;;;19.10;11.73;;;;;;;3.44;100.00;98100.00;5096046;28;20224;-71
2022/12/05 06:23:51;;;;;;;17.50;12.27;;;;;;;3.51;100.00;98102.75;5096484;28;20208;-71
2022/12/05 06:26:19;;;;;;;14.67;11.20;;;;;;;3.45;100.00;98098.19;5096262;28;20693;-71
2022/12/05 06:28:46;;;;;;;19.10;12.20;;;;;;;3.46;100.00;98095.41;5096154;28;20218;-72
2022/12/05 06:31:16;;;;;;;15.90;11.10;;;;;;;3.45;100.00;98090.31;5096537;28;20227;-72
2022/12/05 06:33:43;;;;;;;21.03;11.97;;;;;;;3.40;100.00;98101.34;5096283;28;20290;-71
2022/12/05 06:36:15;;;;;;;21.20;12.40;;;;;;;3.46;100.00;98115.59;5096525;28;20290;-72
2022/12/05 06:38:42;;;;;;;21.03;12.93;;;;;;;3.46;100.00;98134.81;5096032;28;20194;-72
2022/12/05 06:41:13;;;;;;;17.43;11.33;;;;;;;3.54;100.00;98136.59;5095562;28;20561;-72
2022/12/05 06:43:40;;;;;;;19.40;12.50;;;;;;;3.54;100.00;98140.03;5095957;28;20551;-72
2022/12/05 06:46:08;;;;;;;19.07;12.43;;;;;;;3.53;100.00;98148.91;5095379;28;20603;-72
2022/12/05 06:48:35;;;;;;;19.80;12.37;;;;;;;3.50;100.00;98143.16;5095402;28;20208;-71
2022/12/05 06:51:02;;;;;;;20.33;12.03;;;;;;;3.50;100.00;98143.16;5095120;28;20611;-72
2022/12/05 06:53:28;;;;;;;17.73;11.03;;;;;;;3.53;100.00;98137.59;5095774;28;20290;-72
2022/12/05 06:56:00;;;;;;;16.93;11.77;;;;;;;3.53;100.00;98137.59;5095217;28;20203;-71
2022/12/05 06:58:26;;;;;;;17.67;11.63;;;;;;;3.56;100.00;98145.94;5094937;28;20641;-72
2022/12/05 07:03:38;;;;;;;14.20;10.70;;;;;;;3.62;100.00;98145.22;5095453;28;20261;-71
2022/12/05 07:06:06;;;;;;;16.27;10.93;;;;;;;3.58;100.00;98151.03;5096303;28;20212;-72
2022/12/05 07:08:34;;;;;;;16.83;11.07;;;;;;;3.57;100.00;98147.56;5095813;28;20223;-72
2022/12/05 07:11:01;;;;;;;16.37;11.23;;;;;;;3.57;100.00;98149.38;5095844;28;20246;-72
2022/12/05 07:13:28;;;;;;;14.80;10.00;;;;;;;3.65;100.00;98151.94;5095114;28;20204;-71
2022/12/05 07:15:54;;;;;;;15.43;10.73;;;;;;;3.65;100.00;98159.84;5094709;28;20216;-71
2022/12/05 07:18:22;;;;;;;17.80;11.10;;;;;;;3.68;100.00;98141.94;5095515;28;20204;-71
2022/12/05 07:20:59;;;;;;;17.03;11.13;;;;;;;3.76;100.00;98149.75;5095449;28;20228;-70
2022/12/05 07:23:26;;;;;;;14.17;10.90;;;;;;;3.76;100.00;98164.72;5095332;28;20247;-71
2022/12/05 07:25:52;;;;;;;17.90;11.33;;;;;;;3.72;100.00;98166.06;5095958;28;20204;-71
2022/12/05 07:28:19;;;;;;;16.80;11.83;;;;;;;3.73;100.00;98176.41;5095305;28;20246;-71
2022/12/05 07:30:45;;;;;;;16.63;10.93;;;;;;;3.82;100.00;98174.53;5095037;28;20224;-71
2022/12/05 07:33:12;;;;;;;18.97;11.57;;;;;;;3.86;100.00;98166.13;5095802;28;20212;-71
2022/12/05 07:35:38;;;;;;;16.43;11.43;;;;;;;3.88;100.00;98171.22;5095273;28;20204;-71
2022/12/05 07:38:05;;;;;;;15.03;10.13;;;;;;;3.92;100.00;98181.22;5095013;28;20204;-71
2022/12/05 07:40:31;;;;;;;19.83;11.33;;;;;;;4.03;100.00;98186.06;5095381;28;20207;-71
2022/12/05 07:42:57;;;;;;;15.93;10.43;;;;;;;4.11;100.00;98177.31;5095221;28;20199;-71
2022/12/05 07:45:24;;;;;;;16.67;10.53;;;;;;;4.09;100.00;98174.03;5094493;28;20670;-71
2022/12/05 07:47:50;;;;;;;19.07;10.10;;;;;;;4.08;100.00;98175.03;5094833;28;20215;-72
2022/12/05 07:50:16;;;;;;;17.43;11.00;;;;;;;4.10;100.00;98165.13;5093151;28;20204;-72
2022/12/05 07:52:43;;;;;;;15.13;10.17;;;;;;;4.10;100.00;98178.28;5092768;28;20229;-72
2022/12/05 07:55:09;;;;;;;15.27;10.67;;;;;;;4.06;100.00;98174.38;5092431;28;20204;-71
2022/12/05 07:57:36;;;;;;;14.17;10.17;;;;;;;4.11;100.00;98180.75;5092506;28;20209;-72
2022/12/05 08:00:03;;;;;;;16.20;10.00;;;;;;;4.09;100.00;98179.28;5092783;28;20208;-71
2022/12/05 08:02:29;;;;;;;18.83;11.30;;;;;;;4.01;100.00;98179.34;5092998;28;20231;-71
2022/12/05 08:04:56;;;;;;;18.07;11.03;;;;;;;4.09;100.00;98176.66;5093695;28;20200;-71
2022/12/05 08:07:22;;;;;;;14.87;10.83;;;;;;;4.20;100.00;98176.25;5094776;28;20219;-72
2022/12/05 08:09:48;;;;;;;16.40;10.30;;;;;;;4.30;100.00;98187.38;5094665;28;20225;-72
2022/12/05 08:12:15;;;;;;;15.83;10.57;;;;;;;4.31;100.00;98189.00;5094399;28;20224;-72
2022/12/05 08:14:41;;;;;;;15.17;10.10;;;;;;;4.29;100.00;98183.09;5094652;28;20212;-72
2022/12/05 08:17:07;;;;;;;15.23;10.93;;;;;;;4.16;100.00;98186.28;5094432;28;20304;-71
2022/12/05 08:19:34;;;;;;;13.27;10.33;;;;;;;4.20;100.00;98189.41;5094749;28;20204;-71
2022/12/05 08:22:00;;;;;;;15.37;11.37;;;;;;;4.17;100.00;98187.97;5094413;28;20231;-71
2022/12/05 08:24:26;;;;;;;17.07;9.83;;;;;;;4.18;100.00;98199.28;5094417;28;20303;-71
2022/12/05 08:26:53;;;;;;;14.77;10.10;;;;;;;4.19;100.00;98198.28;5093489;28;20823;-72
2022/12/05 08:29:21;;;;;;;14.57;10.13;;;;;;;4.20;100.00;98207.84;5094282;28;20203;-71
2022/12/05 08:31:50;;;;;;;17.50;10.97;;;;;;;4.25;100.00;98203.66;5094528;28;20255;-71
2022/12/05 08:34:19;;;;;;;14.87;10.67;;;;;;;4.27;100.00;98206.13;5093903;28;20204;-72
2022/12/05 08:36:47;;;;;;;14.90;10.73;;;;;;;4.31;100.00;98212.69;5094233;28;20231;-71
2022/12/05 08:39:16;;;;;;;17.13;10.60;;;;;;;4.34;100.00;98212.34;5093981;28;20743;-72
2022/12/05 08:41:44;;;;;;;15.87;10.47;;;;;;;4.40;100.00;98222.16;5094079;28;20220;-72
2022/12/05 08:44:14;;;;;;;15.73;10.23;;;;;;;4.42;100.00;98220.16;5093881;28;20685;-72
2022/12/05 08:46:41;;;;;;;12.97;10.13;;;;;;;4.43;100.00;98222.59;5093758;28;20196;-71
2022/12/05 08:49:08;;;;;;;15.00;10.97;;;;;;;4.45;100.00;98222.44;5093847;28;20204;-71
2022/12/05 08:51:34;;;;;;;13.87;9.93;;;;;;;4.41;100.00;98223.78;5093887;28;20239;-71
2022/12/05 08:54:05;;;;;;;21.30;11.13;;;;;;;4.44;100.00;98224.25;5094056;28;20200;-72
2022/12/05 08:56:32;;;;;;;13.80;10.00;;;;;;;4.43;100.00;98227.88;5093593;28;20568;-72
2022/12/05 08:59:00;;;;;;;15.90;10.70;;;;;;;4.44;100.00;98228.69;5093691;28;20200;-71
2022/12/05 09:01:30;;;;;;;12.67;10.27;;;;;;;4.55;100.00;98220.38;5093662;28;20227;-71
2022/12/05 09:04:01;;;;;;;12.37;10.40;;;;;;;4.55;100.00;98228.28;5093835;28;20270;-72
2022/12/05 09:06:29;;;;;;;15.17;10.03;;;;;;;4.56;100.00;98224.66;5093907;28;20292;-71
2022/12/05 09:08:58;;;;;;;12.93;9.17;;;;;;;4.63;100.00;98229.03;5093916;28;20230;-72
2022/12/05 09:11:30;;;;;;;15.77;9.70;;;;;;;4.70;100.00;98237.84;5093742;28;20227;-72
2022/12/05 09:13:58;;;;;;;10.60;8.27;;;;;;;4.69;100.00;98236.22;5093681;28;20199;-72
2022/12/05 09:16:30;;;;;;;11.73;8.80;;;;;;;4.81;100.00;98247.16;5093325;28;20299;-72
2022/12/05 09:18:56;;;;;;;12.50;8.83;;;;;;;4.82;100.00;98254.06;5093518;28;20181;-72
2022/12/05 09:21:26;;;;;;;9.93;7.83;;;;;;;4.87;100.00;98256.97;5093627;28;20224;-72
2022/12/05 09:23:53;;;;;;;11.83;8.47;;;;;;;5.02;100.00;98263.09;5093333;28;20670;-72
2022/12/05 09:26:23;;;;;;;9.77;7.47;;;;;;;4.96;100.00;98256.72;5093412;28;20290;-72
2022/12/05 09:28:50;;;;;;;10.93;8.87;;;;;;;5.11;100.00;98267.31;5093426;28;20220;-72
2022/12/05 09:31:20;;;;;;;8.67;6.87;;;;;;;5.17;100.00;98256.03;5093494;28;20648;-72
2022/12/05 09:33:48;;;;;;;8.50;7.60;;;;;;;5.18;100.00;98265.56;5093642;28;20196;-72
2022/12/05 09:36:18;;;;;;;9.80;7.30;;;;;;;5.11;100.00;98267.31;5093578;28;20218;-71
2022/12/05 09:38:45;;;;;;;9.60;6.47;;;;;;;5.11;100.00;98269.94;5093048;28;20210;-72
2022/12/05 09:41:14;;;;;;;8.53;6.83;;;;;;;5.14;100.00;98272.19;5093370;28;20230;-72
2022/12/05 09:43:58;;;;;;;9.23;6.83;;;;;;;5.19;100.00;98269.84;5092985;28;20204;-72
2022/12/05 09:46:39;;;;;;;9.03;7.27;;;;;;;5.27;100.00;98270.59;5093118;28;20192;-71
2022/12/05 09:49:09;;;;;;;8.90;7.33;;;;;;;5.33;100.00;98274.34;5093090;28;20663;-72
2022/12/05 09:51:41;;;;;;;10.67;7.70;;;;;;;5.30;100.00;98285.22;5092852;28;20236;-70
2022/12/05 09:54:11;;;;;;;10.47;8.17;;;;;;;5.34;100.00;98281.22;5075483;28;20188;-71
2022/12/05 09:56:38;;;;;;;12.63;9.83;;;;;;;5.28;100.00;98281.94;5092806;28;20548;-72
2022/12/05 09:59:05;;;;;;;10.50;9.10;;;;;;;5.33;100.00;98284.88;5093463;28;20199;-72
2022/12/05 10:02:10;;;;;;;11.33;9.33;;;;;;;5.21;100.00;98281.03;5093295;28;20220;-71
2022/12/05 10:04:59;;;;;;;10.67;8.43;;;;;;;5.24;100.00;98278.84;5061827;28;20203;-72
2022/12/05 10:08:01;;;;;;;13.60;9.00;;;;;;;5.10;100.00;98277.00;5093074;28;20215;-72
2022/12/05 10:10:31;;;;;;;9.83;8.63;;;;;;;5.13;100.00;98278.47;5092938;28;20196;-72
2022/12/05 10:13:03;;;;;;;13.47;9.30;;;;;;;5.10;100.00;98282.28;5092925;28;20203;-72
2022/12/05 10:15:39;;;;;;;12.77;8.80;;;;;;;5.15;100.00;98276.50;5093203;28;20199;-71
2022/12/05 10:18:30;;;;;;;12.47;9.03;;;;;;;5.13;100.00;98275.84;5092878;28;20194;-72
2022/12/05 10:21:10;;;;;;;13.20;9.10;;;;;;;5.15;100.00;98276.50;5093322;28;20691;-72
2022/12/05 10:23:49;;;;;;;9.03;7.20;;;;;;;5.20;100.00;98276.78;5092813;28;20192;-72
2022/12/05 10:26:16;;;;;;;8.10;6.50;;;;;;;5.24;100.00;98275.41;5092678;28;20275;-72
2022/12/05 10:29:08;;;;;;;8.83;6.80;;;;;;;5.24;100.00;98283.31;5092493;28;20234;-72
2022/12/05 10:31:38;;;;;;;9.63;6.77;;;;;;;5.32;100.00;98272.66;5092694;28;20310;-72
2022/12/05 10:34:31;;;;;;;8.87;7.17;;;;;;;5.42;100.00;98265.34;5093416;28;20206;-71
2022/12/05 10:37:15;;;;;;;7.63;6.67;;;;;;;5.43;100.00;98264.34;5092788;28;20188;-72
2022/12/05 10:39:42;;;;;;;8.13;7.10;;;;;;;5.45;100.00;98262.31;5092546;28;20272;-72
2022/12/05 10:42:21;;;;;;;7.93;6.30;;;;;;;5.59;100.00;98261.50;5092343;28;20228;-71
2022/12/05 10:44:50;;;;;;;9.13;7.90;;;;;;;5.75;100.00;98266.59;5092693;28;20188;-72
2022/12/05 10:47:17;;;;;;;8.10;6.47;;;;;;;6.19;100.00;98265.53;5092554;28;20568;-71
2022/12/05 10:49:44;;;;;;;12.10;9.27;;;;;;;6.30;100.00;98259.78;5092686;28;20204;-71
2022/12/05 10:52:13;;;;;;;14.03;9.60;;;;;;;6.50;100.00;98259.97;5095850;28;20228;-71
2022/12/05 10:54:57;;;;;;;13.07;9.80;;;;;;;6.20;100.00;98271.66;5096571;28;20204;-71
2022/12/05 10:57:26;;;;;;;11.73;9.27;;;;;;;6.51;100.00;98267.69;5096258;28;20188;-72
2022/12/05 10:59:53;;;;;;;13.93;9.77;;;;;;;6.58;100.00;98263.31;5096192;28;20200;-72
2022/12/05 11:02:33;;;;;;;10.87;8.60;;;;;;;6.56;100.00;98265.31;5078130;28;20593;-71
2022/12/05 11:05:00;;;;;;;12.53;9.03;;;;;;;6.55;100.00;98255.75;5095921;28;20199;-71
2022/12/05 11:07:47;;;;;;;15.07;9.63;;;;;;;6.30;100.00;98256.31;5095817;28;20204;-72
2022/12/05 11:10:39;;;;;;;13.40;9.07;;;;;;;6.44;100.00;98255.44;5095549;28;20634;-71
2022/12/05 11:13:16;;;;;;;11.53;8.90;;;;;;;6.55;100.00;98247.00;5095958;28;20188;-71
2022/12/05 11:15:47;;;;;;;14.83;9.50;;;;;;;6.21;100.00;98250.34;5095766;28;20188;-71
2022/12/05 11:18:40;;;;;;;10.93;8.90;;;;;;;6.09;100.00;98261.56;5095466;28;20658;-72
2022/12/05 11:21:16;;;;;;;11.83;8.93;;;;;;;6.10;100.00;98261.38;5093114;28;20778;-72
2022/12/05 11:23:43;;;;;;;11.43;9.00;;;;;;;6.19;100.00;98256.81;5095524;28;20245;-72
2022/12/05 11:26:28;;;;;;;11.87;9.67;;;;;;;6.34;100.00;98245.19;5095393;28;20214;-72
2022/12/05 11:28:54;;;;;;;12.03;8.37;;;;;;;6.02;100.00;98256.19;5095326;28;20718;-72
2022/12/05 11:31:27;;;;;;;11.73;9.70;;;;;;;6.29;100.00;98238.84;5095217;28;20230;-72
2022/12/05 11:34:21;;;;;;;11.83;9.57;;;;;;;6.42;100.00;98249.53;5095611;28;20560;-72
2022/12/05 11:36:54;;;;;;;13.33;9.73;;;;;;;6.45;100.00;98249.16;5096124;28;20203;-71
2022/12/05 11:39:21;;;;;;;11.37;8.70;;;;;;;6.61;100.00;98241.00;5095622;28;20194;-72
2022/12/05 11:42:14;;;;;;;12.53;8.83;;;;;;;6.07;100.00;98242.47;5095477;28;20223;-71
2022/12/05 11:45:09;;;;;;;10.07;8.47;;;;;;;6.23;100.00;98250.13;5095818;28;20622;-71
2022/12/05 11:47:38;;;;;;;10.63;8.73;;;;;;;6.34;100.00;98242.53;5095060;28;20208;-71
2022/12/05 11:50:32;;;;;;;9.90;8.90;;;;;;;6.32;100.00;98246.38;5095153;28;20290;-71